createdAt,value
2022-07-28T00:00:48.814Z,25.80
2022-07-28T00:03:15.569Z,25.90
2022-07-28T00:05:42.398Z,25.80
2022-07-28T00:08:10.399Z,25.80
2022-07-28T00:10:37.103Z,25.80
2022-07-28T00:13:03.929Z,25.70
2022-07-28T00:15:34.869Z,25.70
2022-07-28T00:18:01.826Z,25.60
2022-07-28T00:20:30.644Z,25.60
2022-07-28T00:22:57.408Z,25.50
2022-07-28T00:25:24.563Z,25.50
2022-07-28T00:27:51.282Z,25.40
2022-07-28T00:30:18.027Z,25.40
2022-07-28T00:32:44.952Z,25.40
2022-07-28T00:35:12.481Z,25.40
2022-07-28T00:37:41.712Z,25.30
2022-07-28T00:40:08.934Z,25.30
2022-07-28T00:42:35.701Z,25.30
2022-07-28T00:45:02.484Z,25.40
2022-07-28T00:47:33.650Z,25.50
2022-07-28T00:50:04.536Z,25.60
2022-07-28T00:52:31.301Z,25.70
2022-07-28T00:54:58.138Z,25.70
2022-07-28T00:57:24.832Z,25.70
2022-07-28T00:59:51.540Z,25.60
2022-07-28T01:02:19.108Z,25.60
2022-07-28T01:04:46.040Z,25.50
2022-07-28T01:07:15.853Z,25.30
2022-07-28T01:10:01.390Z,25.40
2022-07-28T01:12:38.203Z,25.40
2022-07-28T01:15:14.751Z,25.40
2022-07-28T01:17:45.430Z,25.30
2022-07-28T01:20:12.162Z,25.30
2022-07-28T01:22:40.633Z,25.20
2022-07-28T01:25:13.364Z,25.20
2022-07-28T01:27:43.194Z,25.20
2022-07-28T01:30:28.810Z,25.20
2022-07-28T01:33:00.215Z,25.10
2022-07-28T01:35:33.421Z,25.20
2022-07-28T01:38:01.731Z,25.30
2022-07-28T01:40:29.892Z,25.40
2022-07-28T01:42:57.117Z,25.60
2022-07-28T01:45:23.855Z,25.50
2022-07-28T01:47:50.575Z,25.60
2022-07-28T01:50:18.762Z,25.50
2022-07-28T01:52:46.185Z,25.40
2022-07-28T01:55:13.211Z,25.40
2022-07-28T01:57:39.933Z,25.30
2022-07-28T02:00:07.427Z,25.30
2022-07-28T02:02:34.131Z,25.30
2022-07-28T02:05:01.049Z,25.20
2022-07-28T02:07:27.864Z,25.20
2022-07-28T02:09:54.940Z,25.20
2022-07-28T02:12:21.645Z,25.20
2022-07-28T02:14:48.972Z,25.10
2022-07-28T02:17:16.610Z,25.00
2022-07-28T02:19:43.462Z,25.00
2022-07-28T02:22:10.145Z,25.00
2022-07-28T02:24:36.867Z,25.00
2022-07-28T02:27:22.308Z,25.10
2022-07-28T02:29:51.293Z,25.20
2022-07-28T02:32:27.449Z,25.40
2022-07-28T02:34:58.910Z,25.50
2022-07-28T02:37:25.609Z,25.50
2022-07-28T02:39:55.294Z,25.40
2022-07-28T02:42:28.822Z,25.40
2022-07-28T02:44:57.317Z,25.40
2022-07-28T02:47:25.454Z,25.30
2022-07-28T02:49:52.231Z,25.20
2022-07-28T02:52:19.287Z,25.20
2022-07-28T02:54:45.988Z,25.20
2022-07-28T02:57:12.673Z,25.10
2022-07-28T02:59:39.425Z,25.10
2022-07-28T03:02:06.119Z,25.10
2022-07-28T03:04:51.496Z,25.00
2022-07-28T03:07:18.249Z,25.00
2022-07-28T03:09:45.814Z,25.00
2022-07-28T03:12:12.682Z,25.00
2022-07-28T03:14:39.397Z,24.90
2022-07-28T03:17:06.278Z,24.90
2022-07-28T03:19:33.050Z,24.80
2022-07-28T03:21:59.949Z,24.80
2022-07-28T03:24:35.527Z,25.00
2022-07-28T03:27:21.032Z,25.10
2022-07-28T03:29:53.096Z,25.20
2022-07-28T03:32:20.501Z,25.40
2022-07-28T03:34:47.409Z,24.90
2022-07-28T03:37:14.825Z,24.20
2022-07-28T03:39:46.959Z,23.60
2022-07-28T03:42:18.199Z,22.90
2022-07-28T03:44:47.991Z,22.50
2022-07-28T03:47:15.194Z,22.10
2022-07-28T03:49:41.998Z,21.90
2022-07-28T03:52:08.753Z,21.50
2022-07-28T03:54:35.492Z,21.20
2022-07-28T03:57:02.224Z,21.00
2022-07-28T03:59:28.980Z,20.80
2022-07-28T04:01:56.489Z,20.60
2022-07-28T04:04:23.508Z,20.50
2022-07-28T04:06:50.248Z,20.50
2022-07-28T04:09:17.872Z,20.50
2022-07-28T04:11:44.632Z,20.50
2022-07-28T04:14:16.492Z,20.60
2022-07-28T04:16:44.165Z,20.60
2022-07-28T04:19:10.894Z,20.70
2022-07-28T04:21:37.577Z,20.70
2022-07-28T04:24:04.533Z,20.70
2022-07-28T04:26:31.427Z,20.70
2022-07-28T04:28:58.118Z,20.60
2022-07-28T04:31:24.940Z,20.50
2022-07-28T04:33:52.239Z,20.50
2022-07-28T04:36:18.955Z,20.50
2022-07-28T04:38:47.627Z,20.50
2022-07-28T04:41:14.470Z,20.60
2022-07-28T04:43:41.292Z,20.60
2022-07-28T04:46:09.918Z,20.60
2022-07-28T04:48:39.982Z,20.70
2022-07-28T04:51:06.804Z,20.70
2022-07-28T04:53:33.697Z,20.70
2022-07-28T04:56:03.601Z,20.70
2022-07-28T04:58:30.939Z,20.80
2022-07-28T05:00:57.919Z,20.70
2022-07-28T05:03:24.668Z,20.80
2022-07-28T05:05:54.443Z,20.80
2022-07-28T05:08:22.174Z,20.80
2022-07-28T05:10:52.617Z,20.80
2022-07-28T05:13:19.309Z,20.80
2022-07-28T05:15:46.278Z,21.00
2022-07-28T05:18:12.951Z,21.30
2022-07-28T05:20:39.636Z,21.60
2022-07-28T05:23:06.404Z,21.90
2022-07-28T05:25:33.095Z,22.10
2022-07-28T05:27:59.819Z,22.30
2022-07-28T05:30:26.556Z,22.40
2022-07-28T05:32:53.980Z,22.60
2022-07-28T05:35:20.929Z,22.70
2022-07-28T05:37:47.689Z,22.80
2022-07-28T05:40:14.896Z,23.00
2022-07-28T05:42:44.908Z,23.00
2022-07-28T05:45:17.002Z,23.10
2022-07-28T05:47:46.235Z,23.10
2022-07-28T05:50:13.740Z,23.20
2022-07-28T05:52:40.550Z,23.30
2022-07-28T05:55:07.448Z,23.30
2022-07-28T05:57:34.263Z,23.40
2022-07-28T06:00:01.045Z,23.40
2022-07-28T06:02:28.137Z,23.40
2022-07-28T06:04:55.969Z,23.50
2022-07-28T06:07:22.722Z,23.50
2022-07-28T06:10:10.352Z,23.50
2022-07-28T06:12:41.059Z,23.60
2022-07-28T06:15:08.646Z,23.60
2022-07-28T06:17:35.479Z,23.60
2022-07-28T06:20:02.174Z,23.70
2022-07-28T06:22:28.884Z,23.70
2022-07-28T06:24:55.676Z,23.70
2022-07-28T06:27:22.396Z,23.70
2022-07-28T06:29:49.242Z,23.80
2022-07-28T06:32:17.198Z,23.90
2022-07-28T06:34:43.925Z,24.10
2022-07-28T06:37:10.634Z,24.20
2022-07-28T06:39:37.347Z,24.40
2022-07-28T06:42:04.126Z,24.60
2022-07-28T06:44:54.959Z,24.80
2022-07-28T06:47:17.850Z,24.90
2022-07-28T06:49:46.012Z,24.90
2022-07-28T06:52:12.999Z,24.90
2022-07-28T06:54:39.756Z,24.80
2022-07-28T06:57:15.428Z,24.80
2022-07-28T06:59:43.724Z,24.70
2022-07-28T07:02:10.461Z,24.70
2022-07-28T07:04:37.204Z,24.70
2022-07-28T07:07:04.114Z,24.70
2022-07-28T07:09:43.703Z,24.60
2022-07-28T07:12:10.388Z,24.60
2022-07-28T07:14:37.104Z,24.60
2022-07-28T07:17:03.813Z,24.60
2022-07-28T07:19:30.512Z,24.60
2022-07-28T07:21:57.229Z,24.60
2022-07-28T07:24:24.047Z,24.60
2022-07-28T07:26:50.784Z,24.70
2022-07-28T07:29:17.545Z,24.60
2022-07-28T07:31:44.368Z,24.70
2022-07-28T07:34:11.295Z,24.80
2022-07-28T07:36:38.245Z,25.00
2022-07-28T07:39:04.954Z,25.20
2022-07-28T07:41:31.625Z,25.30
2022-07-28T07:43:58.295Z,25.20
2022-07-28T07:46:25.347Z,25.20
2022-07-28T07:48:52.150Z,25.20
2022-07-28T07:51:18.884Z,25.10
2022-07-28T07:53:45.617Z,25.00
2022-07-28T07:56:14.404Z,25.00
2022-07-28T07:58:41.116Z,25.00
2022-07-28T08:01:07.845Z,24.90
2022-07-28T08:03:38.184Z,24.90
2022-07-28T08:06:06.052Z,24.90
2022-07-28T08:08:38.560Z,24.90
2022-07-28T08:11:08.418Z,24.80
2022-07-28T08:13:35.513Z,24.80
2022-07-28T08:16:03.330Z,24.80
2022-07-28T08:18:30.110Z,24.80
2022-07-28T08:20:56.859Z,24.80
2022-07-28T08:23:26.270Z,24.80
2022-07-28T08:25:53.613Z,24.90
2022-07-28T08:28:20.327Z,25.10
2022-07-28T08:30:47.018Z,25.20
2022-07-28T08:33:13.714Z,25.40
2022-07-28T08:35:41.787Z,25.50
2022-07-28T08:38:08.595Z,25.50
2022-07-28T08:40:35.403Z,25.50
2022-07-28T08:43:14.344Z,25.40
2022-07-28T08:45:42.293Z,25.40
2022-07-28T08:48:10.053Z,25.30
2022-07-28T08:50:37.782Z,25.30
2022-07-28T08:53:04.486Z,25.20
2022-07-28T08:55:32.349Z,25.20
2022-07-28T08:58:00.207Z,25.10
2022-07-28T09:00:27.160Z,25.20
2022-07-28T09:02:53.899Z,25.10
2022-07-28T09:05:21.434Z,25.10
2022-07-28T09:07:54.086Z,25.00
2022-07-28T09:10:22.014Z,25.00
2022-07-28T09:12:48.817Z,25.00
2022-07-28T09:15:15.957Z,25.00
2022-07-28T09:17:42.676Z,25.00
2022-07-28T09:20:11.221Z,25.10
2022-07-28T09:22:53.974Z,25.30
2022-07-28T09:25:20.707Z,25.50
2022-07-28T09:27:47.395Z,25.60
2022-07-28T09:30:14.111Z,25.60
2022-07-28T09:32:40.835Z,25.60
2022-07-28T09:35:20.033Z,25.60
2022-07-28T09:37:46.757Z,25.50
2022-07-28T09:40:13.717Z,25.50
2022-07-28T09:42:47.122Z,25.40
2022-07-28T09:45:23.001Z,25.40
2022-07-28T09:47:56.654Z,25.30
2022-07-28T09:50:27.752Z,25.30
2022-07-28T09:52:54.458Z,25.20
2022-07-28T09:55:21.634Z,25.20
2022-07-28T09:57:48.341Z,25.20
2022-07-28T10:00:24.618Z,25.20
2022-07-28T10:02:54.529Z,25.20
2022-07-28T10:05:21.316Z,25.20
2022-07-28T10:07:54.264Z,25.40
2022-07-28T10:10:20.988Z,25.60
2022-07-28T10:12:48.639Z,25.70
2022-07-28T10:15:35.003Z,25.80
2022-07-28T10:18:01.945Z,25.80
2022-07-28T10:20:28.862Z,25.80
2022-07-28T10:22:57.615Z,25.70
2022-07-28T10:25:24.352Z,25.70
2022-07-28T10:27:51.016Z,25.60
2022-07-28T10:30:17.800Z,25.50
2022-07-28T10:32:44.835Z,25.50
2022-07-28T10:35:15.465Z,25.50
2022-07-28T10:37:58.151Z,25.40
2022-07-28T10:40:46.133Z,25.40
2022-07-28T10:43:13.513Z,25.40
2022-07-28T10:46:15.875Z,25.40
2022-07-28T10:48:27.682Z,25.40
2022-07-28T10:50:54.450Z,25.60
2022-07-28T10:53:33.561Z,25.80
2022-07-28T11:09:57.404Z,25.70
2022-07-28T11:12:43.198Z,25.60
2022-07-28T11:15:26.456Z,25.60
2022-07-28T11:17:58.021Z,25.50
2022-07-28T11:20:44.910Z,25.50
2022-07-28T11:23:30.608Z,25.40
2022-07-28T11:26:16.253Z,25.40
2022-07-28T11:29:03.379Z,25.50
2022-07-28T11:31:43.612Z,25.60
2022-07-28T11:34:17.901Z,25.80
2022-07-28T11:37:01.444Z,26.00
2022-07-28T11:39:29.412Z,26.00
2022-07-28T11:41:56.879Z,26.00
2022-07-28T11:51:21.673Z,25.80
2022-07-28T11:53:52.499Z,25.70
2022-07-28T11:56:22.933Z,25.60
2022-07-28T11:58:56.169Z,25.60
2022-07-28T12:01:22.821Z,25.60
2022-07-28T12:03:55.069Z,25.50
2022-07-28T12:06:33.657Z,25.60
2022-07-28T12:09:06.274Z,25.70
2022-07-28T12:11:33.690Z,25.80
2022-07-28T12:14:00.447Z,26.00
2022-07-28T12:16:27.433Z,26.10
2022-07-28T12:18:54.938Z,26.10
2022-07-28T12:21:46.280Z,26.00
2022-07-28T12:24:16.238Z,25.90
2022-07-28T12:26:48.932Z,25.90
2022-07-28T12:29:16.580Z,25.80
2022-07-28T12:31:56.373Z,25.80
2022-07-28T12:34:24.333Z,25.70
2022-07-28T12:36:57.128Z,25.70
2022-07-28T12:39:25.767Z,25.60
2022-07-28T12:42:03.611Z,25.60
2022-07-28T12:44:37.072Z,25.70
2022-07-28T12:47:04.321Z,25.80
2022-07-28T12:49:31.017Z,26.00
2022-07-28T12:51:59.304Z,26.20
2022-07-28T12:54:36.354Z,26.20
2022-07-28T12:57:03.320Z,26.20
2022-07-28T12:59:33.894Z,26.10
2022-07-28T13:02:00.907Z,26.10
2022-07-28T13:04:46.526Z,26.00
2022-07-28T13:07:14.628Z,25.90
2022-07-28T13:09:49.049Z,25.80
2022-07-28T13:12:22.127Z,25.80
2022-07-28T13:14:51.987Z,25.80
2022-07-28T13:17:19.304Z,25.70
2022-07-28T13:19:46.496Z,25.60
2022-07-28T13:22:13.213Z,25.70
2022-07-28T13:24:39.923Z,25.80
2022-07-28T13:27:07.237Z,25.90
2022-07-28T13:29:34.840Z,26.10
2022-07-28T13:32:04.923Z,26.20
2022-07-28T13:34:31.802Z,26.30
2022-07-28T13:37:05.968Z,26.20
2022-07-28T13:39:32.655Z,26.20
2022-07-28T13:41:59.582Z,26.10
2022-07-28T13:44:32.189Z,26.00
2022-07-28T13:46:59.613Z,26.00
2022-07-28T13:49:27.519Z,25.90
2022-07-28T13:51:54.789Z,25.90
2022-07-28T13:54:21.613Z,25.80
2022-07-28T13:56:48.361Z,25.80
2022-07-28T13:59:15.095Z,25.70
2022-07-28T14:01:42.855Z,25.70
2022-07-28T14:04:15.001Z,25.70
2022-07-28T14:06:45.210Z,25.90
2022-07-28T14:09:17.975Z,26.10
2022-07-28T14:11:49.460Z,26.20
2022-07-28T14:14:25.519Z,26.30
2022-07-28T14:16:54.329Z,26.30
2022-07-28T14:19:23.098Z,26.20
2022-07-28T14:22:13.085Z,26.10
2022-07-28T14:24:43.769Z,26.10
2022-07-28T14:27:13.737Z,26.00
2022-07-28T14:29:41.235Z,26.00
2022-07-28T14:32:07.994Z,25.90
2022-07-28T14:34:35.115Z,25.80
2022-07-28T14:37:03.546Z,25.80
2022-07-28T14:39:35.225Z,25.80
2022-07-28T14:42:02.033Z,25.80
2022-07-28T14:44:28.804Z,25.90
2022-07-28T14:46:55.602Z,26.00
2022-07-28T14:49:22.430Z,26.20
2022-07-28T14:51:50.441Z,26.40
2022-07-28T14:54:17.772Z,26.40
2022-07-28T14:56:44.810Z,26.30
2022-07-28T14:59:11.542Z,26.30
2022-07-28T15:01:38.318Z,26.20
2022-07-28T15:04:05.152Z,26.10
2022-07-28T15:06:32.136Z,26.00
2022-07-28T15:08:58.926Z,26.00
2022-07-28T15:11:25.890Z,25.90
2022-07-28T15:13:52.657Z,25.90
2022-07-28T15:16:19.394Z,25.80
2022-07-28T15:18:48.846Z,25.80
2022-07-28T15:21:16.316Z,25.90
2022-07-28T15:23:43.269Z,26.00
2022-07-28T15:26:10.111Z,26.20
2022-07-28T15:28:36.794Z,26.30
2022-07-28T15:31:03.646Z,26.40
2022-07-28T15:33:32.163Z,26.40
2022-07-28T15:35:59.882Z,26.30
2022-07-28T15:38:27.460Z,26.20
2022-07-28T15:40:54.340Z,26.10
2022-07-28T15:43:23.777Z,26.10
2022-07-28T15:45:51.029Z,26.10
2022-07-28T15:48:17.743Z,26.00
2022-07-28T15:50:48.564Z,26.00
2022-07-28T15:53:15.834Z,25.90
2022-07-28T15:55:46.286Z,25.80
2022-07-28T15:58:15.742Z,25.90
2022-07-28T16:00:44.618Z,26.00
2022-07-28T16:03:11.667Z,26.20
2022-07-28T16:05:38.475Z,26.30
2022-07-28T16:08:05.316Z,26.50
2022-07-28T16:10:32.025Z,26.50
2022-07-28T16:12:58.722Z,26.40
2022-07-28T16:15:27.005Z,26.40
2022-07-28T16:17:54.158Z,26.30
2022-07-28T16:20:20.847Z,26.20
2022-07-28T16:22:47.584Z,26.10
2022-07-28T16:25:17.639Z,26.10
2022-07-28T16:27:44.667Z,26.00
2022-07-28T16:30:11.840Z,26.00
2022-07-28T16:32:41.678Z,25.90
2022-07-28T16:35:11.539Z,25.90
2022-07-28T16:37:40.186Z,26.00
2022-07-28T16:40:07.661Z,26.10
2022-07-28T16:42:35.603Z,26.30
2022-07-28T16:45:02.710Z,26.40
2022-07-28T16:47:29.378Z,26.50
2022-07-28T16:49:56.096Z,26.50
2022-07-28T16:52:22.763Z,26.40
2022-07-28T16:54:49.557Z,26.40
2022-07-28T16:57:16.313Z,26.30
2022-07-28T16:59:48.423Z,26.30
2022-07-28T17:02:16.089Z,26.20
2022-07-28T17:04:42.820Z,26.10
2022-07-28T17:07:09.619Z,26.10
2022-07-28T17:09:36.315Z,26.00
2022-07-28T17:12:03.131Z,26.00
2022-07-28T17:14:29.950Z,25.90
2022-07-28T17:16:56.629Z,26.00
2022-07-28T17:19:23.336Z,26.20
2022-07-28T17:21:50.060Z,26.30
2022-07-28T17:24:17.233Z,26.40
2022-07-28T17:29:30.949Z,26.50
2022-07-28T17:31:58.620Z,26.40
2022-07-28T17:34:25.305Z,26.40
2022-07-28T17:36:52.662Z,26.30
2022-07-28T17:39:29.275Z,26.20
2022-07-28T17:41:56.003Z,26.10
2022-07-28T17:44:26.298Z,26.10
2022-07-28T17:46:53.104Z,26.10
2022-07-28T17:49:19.908Z,26.00
2022-07-28T17:51:47.668Z,26.00
2022-07-28T17:54:16.097Z,26.00
2022-07-28T17:56:43.285Z,26.20
2022-07-28T17:59:10.595Z,26.30
2022-07-28T18:01:39.953Z,26.50
2022-07-28T18:04:10.274Z,26.60
2022-07-28T18:06:37.307Z,26.60
2022-07-28T18:09:06.740Z,26.60
2022-07-28T18:11:34.637Z,26.50
2022-07-28T18:14:05.030Z,26.50
2022-07-28T18:16:35.153Z,26.40
2022-07-28T18:19:02.351Z,26.30
2022-07-28T18:21:29.065Z,26.30
2022-07-28T18:23:58.062Z,26.10
2022-07-28T18:26:24.799Z,26.10
2022-07-28T18:28:51.901Z,26.10
2022-07-28T18:31:18.625Z,26.00
2022-07-28T18:33:45.466Z,26.00
2022-07-28T18:36:12.123Z,26.10
2022-07-28T18:38:38.877Z,26.20
2022-07-28T18:41:05.535Z,26.30
2022-07-28T18:43:32.260Z,26.40
2022-07-28T18:45:59.114Z,26.50
2022-07-28T18:48:26.547Z,26.40
2022-07-28T18:50:53.244Z,26.40
2022-07-28T18:53:19.983Z,26.30
2022-07-28T18:55:47.132Z,26.30
2022-07-28T18:58:15.757Z,26.20
2022-07-28T19:00:42.414Z,26.10
2022-07-28T19:03:09.184Z,26.10
2022-07-28T19:05:37.099Z,26.00
2022-07-28T19:08:04.782Z,26.00
2022-07-28T19:10:32.341Z,25.90
2022-07-28T19:12:59.294Z,25.80
2022-07-28T19:15:26.090Z,25.70
2022-07-28T19:18:08.783Z,25.70
2022-07-28T19:20:39.093Z,25.60
2022-07-28T19:23:06.090Z,25.60
2022-07-28T19:25:32.936Z,25.60
2022-07-28T19:27:59.672Z,25.70
2022-07-28T19:30:26.620Z,25.80
2022-07-28T19:32:53.369Z,25.90
2022-07-28T19:35:20.145Z,25.90
2022-07-28T19:37:47.221Z,25.90
2022-07-28T19:40:13.911Z,25.80
2022-07-28T19:42:40.571Z,25.80
2022-07-28T19:45:07.749Z,25.80
2022-07-28T19:47:36.853Z,25.80
2022-07-28T19:50:05.165Z,25.70
2022-07-28T19:52:31.964Z,25.70
2022-07-28T19:54:58.823Z,25.70
2022-07-28T19:57:26.793Z,25.70
2022-07-28T19:59:56.477Z,25.60
2022-07-28T20:02:23.192Z,25.60
2022-07-28T20:04:49.922Z,25.60
2022-07-28T20:07:16.659Z,25.60
2022-07-28T20:09:43.379Z,25.60
2022-07-28T20:12:10.100Z,25.60
2022-07-28T20:14:37.366Z,25.80
2022-07-28T20:17:04.145Z,25.90
2022-07-28T20:19:30.922Z,26.10
2022-07-28T20:21:57.720Z,26.20
2022-07-28T20:24:24.462Z,26.20
2022-07-28T20:26:51.142Z,26.10
2022-07-28T20:29:18.161Z,26.00
2022-07-28T20:31:44.856Z,26.00
2022-07-28T20:34:13.128Z,25.90
2022-07-28T20:36:40.046Z,25.80
2022-07-28T20:39:27.537Z,25.80
2022-07-28T20:41:53.431Z,25.70
2022-07-28T20:44:35.762Z,25.70
2022-07-28T20:47:04.195Z,25.70
2022-07-28T20:49:30.995Z,25.70
2022-07-28T20:51:58.101Z,25.60
2022-07-28T20:54:27.873Z,25.60
2022-07-28T20:56:54.583Z,25.60
2022-07-28T20:59:27.144Z,25.60
2022-07-28T21:01:54.352Z,25.50
2022-07-28T21:04:24.530Z,25.60
2022-07-28T21:06:52.795Z,25.70
2022-07-28T21:09:22.136Z,25.90
2022-07-28T21:11:48.875Z,26.10
2022-07-28T21:14:15.916Z,26.10
2022-07-28T21:16:43.310Z,26.00
2022-07-28T21:19:09.996Z,25.90
2022-07-28T21:21:36.665Z,25.90
2022-07-28T21:24:03.370Z,25.80
2022-07-28T21:26:30.123Z,25.80
2022-07-28T21:29:12.557Z,25.70
2022-07-28T21:32:02.153Z,25.70
2022-07-28T21:34:26.685Z,25.70
2022-07-28T21:36:53.423Z,25.60
2022-07-28T21:39:20.113Z,25.60
2022-07-28T21:41:46.889Z,25.60
2022-07-28T21:44:13.665Z,25.50
2022-07-28T21:46:42.657Z,25.50
2022-07-28T21:49:09.524Z,25.50
2022-07-28T21:51:36.350Z,25.40
2022-07-28T21:54:04.314Z,25.40
2022-07-28T21:56:32.402Z,25.50
2022-07-28T21:58:59.094Z,25.60
2022-07-28T22:01:27.109Z,25.80
2022-07-28T22:03:54.016Z,25.90
2022-07-28T22:06:20.749Z,26.00
2022-07-28T22:08:50.352Z,26.00
2022-07-28T22:11:17.112Z,25.90
2022-07-28T22:13:43.801Z,25.90
2022-07-28T22:16:10.545Z,25.80
2022-07-28T22:18:37.249Z,25.70
2022-07-28T22:21:03.982Z,25.70
2022-07-28T22:23:30.629Z,25.60
2022-07-28T22:25:57.364Z,25.60
2022-07-28T22:28:30.572Z,25.60
2022-07-28T22:30:58.247Z,25.50
2022-07-28T22:33:24.964Z,25.50
2022-07-28T22:35:51.793Z,25.50
2022-07-28T22:38:18.477Z,25.40
2022-07-28T22:40:45.178Z,25.40
2022-07-28T22:43:11.869Z,25.40
2022-07-28T22:45:50.292Z,25.40
2022-07-28T22:48:17.849Z,25.40
2022-07-28T22:50:44.618Z,25.30
2022-07-28T22:53:11.322Z,25.30
2022-07-28T22:55:39.679Z,25.40
2022-07-28T22:58:06.368Z,25.40
2022-07-28T23:00:35.527Z,25.60
2022-07-28T23:03:03.972Z,25.70
2022-07-28T23:05:30.809Z,25.80
2022-07-28T23:07:58.964Z,25.90
2022-07-28T23:10:25.984Z,25.80
2022-07-28T23:12:53.585Z,25.80
2022-07-28T23:15:24.190Z,25.80
2022-07-28T23:18:06.575Z,25.70
2022-07-28T23:20:33.292Z,25.70
2022-07-28T23:22:59.961Z,25.60
2022-07-28T23:25:26.655Z,25.60
2022-07-28T23:27:53.388Z,25.60
2022-07-28T23:30:20.057Z,25.50
2022-07-28T23:32:49.006Z,25.50
2022-07-28T23:35:15.677Z,25.40
2022-07-28T23:37:42.361Z,25.40
2022-07-28T23:40:09.311Z,25.40
2022-07-28T23:42:35.977Z,25.40
2022-07-28T23:45:03.347Z,25.40
2022-07-28T23:47:30.037Z,25.30
2022-07-28T23:49:56.773Z,25.30
2022-07-28T23:52:23.521Z,25.30
2022-07-28T23:54:50.174Z,25.20
2022-07-28T23:57:16.926Z,25.40
2022-07-28T23:59:43.574Z,25.50
